createdAt,value
2018-09-27T00:00:03.347Z,10.97
2018-09-27T00:02:31.929Z,12.97
2018-09-27T00:05:00.669Z,16.17
2018-09-27T00:07:30.394Z,12.73
2018-09-27T00:09:59.982Z,9.27
2018-09-27T00:12:28.547Z,8.23
2018-09-27T00:14:57.392Z,7.63
2018-09-27T00:17:26.124Z,8.63
2018-09-27T00:19:54.898Z,7.93
2018-09-27T00:22:23.475Z,9.03
2018-09-27T00:24:52.109Z,6.23
2018-09-27T00:27:21.029Z,4.90
2018-09-27T00:29:50.565Z,5.57
2018-09-27T00:32:19.145Z,4.73
2018-09-27T00:34:48.784Z,3.83
2018-09-27T00:37:17.538Z,6.97
2018-09-27T00:39:46.046Z,4.47
2018-09-27T00:42:15.128Z,6.63
2018-09-27T00:44:43.934Z,5.03
2018-09-27T00:47:12.542Z,6.27
2018-09-27T00:49:42.744Z,5.20
2018-09-27T00:52:11.307Z,6.30
2018-09-27T00:54:39.947Z,4.33
2018-09-27T00:57:08.532Z,4.33
2018-09-27T00:59:37.278Z,5.67
2018-09-27T01:02:07.237Z,5.27
2018-09-27T01:04:35.922Z,6.90
2018-09-27T01:07:06.194Z,9.90
2018-09-27T01:09:34.916Z,5.03
2018-09-27T01:12:03.618Z,3.97
2018-09-27T01:14:32.406Z,5.77
2018-09-27T01:17:01.107Z,7.87
2018-09-27T01:19:31.402Z,4.17
2018-09-27T01:22:00.718Z,6.13
2018-09-27T01:24:30.387Z,4.67
2018-09-27T01:26:59.058Z,6.80
2018-09-27T01:29:27.702Z,4.80
2018-09-27T01:31:56.205Z,2.97
2018-09-27T01:34:24.988Z,3.63
2018-09-27T01:36:53.536Z,3.63
2018-09-27T01:39:22.137Z,4.33
2018-09-27T01:41:51.120Z,5.17
2018-09-27T01:44:20.357Z,3.00
2018-09-27T01:46:48.903Z,5.37
2018-09-27T01:49:17.524Z,5.30
2018-09-27T01:51:46.656Z,2.87
2018-09-27T01:54:15.128Z,3.97
2018-09-27T01:56:43.663Z,7.97
2018-09-27T01:59:12.702Z,3.63
2018-09-27T02:01:41.220Z,6.70
2018-09-27T02:04:09.720Z,4.43
2018-09-27T02:06:38.364Z,5.50
2018-09-27T02:09:09.121Z,5.67
2018-09-27T02:11:37.973Z,5.83
2018-09-27T02:14:06.720Z,7.03
2018-09-27T02:16:35.450Z,3.70
2018-09-27T02:19:04.074Z,4.27
2018-09-27T02:21:32.636Z,5.60
2018-09-27T02:24:01.214Z,4.40
2018-09-27T02:26:29.733Z,4.57
2018-09-27T02:28:58.252Z,7.73
2018-09-27T02:31:26.812Z,3.43
2018-09-27T02:33:55.315Z,5.23
2018-09-27T02:36:24.036Z,5.07
2018-09-27T02:38:53.637Z,3.50
2018-09-27T02:41:22.528Z,5.00
2018-09-27T02:43:51.045Z,3.87
2018-09-27T02:46:19.581Z,3.57
2018-09-27T02:48:48.257Z,4.37
2018-09-27T02:51:16.818Z,5.03
2018-09-27T02:53:45.391Z,5.03
2018-09-27T02:56:14.314Z,4.10
2018-09-27T02:58:43.365Z,5.63
2018-09-27T03:01:12.000Z,4.70
2018-09-27T03:03:40.642Z,2.87
2018-09-27T03:06:09.296Z,4.63
2018-09-27T03:08:37.892Z,4.53
2018-09-27T03:11:06.728Z,4.43
2018-09-27T03:13:35.602Z,3.47
2018-09-27T03:16:04.296Z,6.47
2018-09-27T03:18:33.073Z,3.20
2018-09-27T03:21:01.711Z,3.83
2018-09-27T03:23:30.369Z,12.90
2018-09-27T03:25:58.976Z,6.13
2018-09-27T03:28:27.616Z,5.00
2018-09-27T03:30:56.226Z,4.50
2018-09-27T03:33:24.815Z,3.53
2018-09-27T03:35:53.637Z,5.30
2018-09-27T03:38:22.320Z,3.50
2018-09-27T03:40:54.440Z,6.40
2018-09-27T03:43:22.970Z,6.20
2018-09-27T03:45:51.622Z,3.20
2018-09-27T03:48:21.158Z,3.90
2018-09-27T03:50:49.746Z,5.40
2018-09-27T03:53:18.308Z,6.70
2018-09-27T03:55:46.902Z,2.97
2018-09-27T03:58:16.665Z,4.83
2018-09-27T04:00:45.200Z,3.20
2018-09-27T04:03:13.771Z,3.43
2018-09-27T04:05:42.469Z,2.87
2018-09-27T04:08:11.034Z,6.63
2018-09-27T04:10:40.388Z,4.00
2018-09-27T04:13:08.853Z,3.70
2018-09-27T04:15:37.504Z,5.07
2018-09-27T04:18:06.243Z,2.53
2018-09-27T04:20:41.804Z,3.67
2018-09-27T04:23:10.298Z,3.60
2018-09-27T04:25:40.013Z,4.97
2018-09-27T04:28:08.707Z,5.43
2018-09-27T04:30:37.373Z,5.00
2018-09-27T04:33:06.133Z,6.60
2018-09-27T04:35:34.723Z,2.97
2018-09-27T04:38:03.569Z,3.83
2018-09-27T04:40:32.259Z,4.50
2018-09-27T04:43:00.862Z,2.37
2018-09-27T04:45:29.716Z,4.03
2018-09-27T04:47:58.356Z,4.20
2018-09-27T04:50:27.052Z,3.43
2018-09-27T04:52:55.782Z,5.50
2018-09-27T04:55:28.309Z,2.87
2018-09-27T04:57:56.978Z,3.43
2018-09-27T05:00:25.851Z,2.20
2018-09-27T05:02:55.789Z,2.77
2018-09-27T05:05:29.139Z,3.30
2018-09-27T05:07:58.720Z,5.60
2018-09-27T05:10:27.420Z,2.60
2018-09-27T05:12:56.190Z,3.07
2018-09-27T05:15:24.892Z,7.47
2018-09-27T05:17:53.386Z,6.07
2018-09-27T05:20:22.231Z,4.30
2018-09-27T05:22:50.816Z,4.83
2018-09-27T05:25:19.454Z,6.70
2018-09-27T05:27:48.796Z,3.83
2018-09-27T05:30:17.321Z,2.43
2018-09-27T05:32:45.980Z,5.00
2018-09-27T05:35:14.594Z,3.17
2018-09-27T05:37:43.272Z,3.37
2018-09-27T05:40:12.582Z,3.17
2018-09-27T05:42:41.072Z,2.37
2018-09-27T05:45:09.588Z,4.33
2018-09-27T05:47:38.356Z,4.20
2018-09-27T05:50:07.701Z,6.17
2018-09-27T05:52:37.638Z,5.47
2018-09-27T05:55:06.695Z,4.20
2018-09-27T05:57:35.455Z,3.50
2018-09-27T06:00:04.247Z,3.00
2018-09-27T06:02:33.240Z,4.60
2018-09-27T06:05:01.954Z,4.47
2018-09-27T06:07:32.163Z,4.20
2018-09-27T06:10:01.524Z,4.17
2018-09-27T06:12:30.337Z,4.10
2018-09-27T06:14:58.887Z,3.47
2018-09-27T06:17:27.456Z,5.10
2018-09-27T06:19:56.194Z,5.70
2018-09-27T06:22:24.625Z,6.53
2018-09-27T06:24:53.308Z,4.70
2018-09-27T06:27:22.014Z,7.90
2018-09-27T06:29:50.612Z,4.63
2018-09-27T06:32:19.193Z,3.83
2018-09-27T06:34:48.555Z,7.07
2018-09-27T06:37:17.132Z,6.20
2018-09-27T06:39:45.717Z,5.60
2018-09-27T06:42:14.383Z,4.30
2018-09-27T06:44:43.057Z,9.10
2018-09-27T06:47:11.792Z,6.47
2018-09-27T06:49:41.150Z,4.87
2018-09-27T06:52:09.731Z,6.70
2018-09-27T06:54:38.247Z,4.90
2018-09-27T06:57:07.065Z,4.30
2018-09-27T06:59:35.724Z,6.70
2018-09-27T07:02:04.483Z,7.57
2018-09-27T07:04:33.331Z,3.63
2018-09-27T07:07:01.890Z,6.43
2018-09-27T07:09:30.484Z,6.60
2018-09-27T07:11:59.037Z,4.50
2018-09-27T07:14:27.716Z,5.30
2018-09-27T07:16:56.233Z,4.93
2018-09-27T07:19:25.209Z,5.13
2018-09-27T07:21:53.677Z,5.20
2018-09-27T07:24:22.296Z,5.60
2018-09-27T07:26:51.232Z,4.83
2018-09-27T07:29:19.848Z,6.77
2018-09-27T07:31:50.279Z,5.50
2018-09-27T07:34:18.904Z,5.10
2018-09-27T07:36:47.628Z,5.43
2018-09-27T07:39:16.460Z,7.33
2018-09-27T07:41:44.997Z,4.23
2018-09-27T07:44:13.691Z,5.33
2018-09-27T07:46:42.299Z,7.47
2018-09-27T07:49:12.447Z,4.77
2018-09-27T07:51:41.187Z,6.33
2018-09-27T07:54:09.880Z,3.27
2018-09-27T07:56:38.485Z,6.23
2018-09-27T07:59:06.954Z,4.90
2018-09-27T08:01:35.675Z,9.73
2018-09-27T08:04:04.312Z,5.23
2018-09-27T08:06:33.008Z,4.27
2018-09-27T08:09:01.640Z,4.27
2018-09-27T08:11:30.202Z,4.57
2018-09-27T08:13:58.612Z,8.60
2018-09-27T08:16:27.207Z,2.67
2018-09-27T08:18:55.755Z,8.47
2018-09-27T08:21:24.428Z,4.43
2018-09-27T08:23:52.987Z,7.77
2018-09-27T08:26:21.501Z,4.50
2018-09-27T08:28:49.993Z,4.90
2018-09-27T08:31:18.615Z,8.50
2018-09-27T08:33:47.157Z,7.13
2018-09-27T08:36:15.658Z,4.63
2018-09-27T08:38:44.474Z,5.73
2018-09-27T08:41:13.147Z,4.37
2018-09-27T08:43:42.787Z,5.47
2018-09-27T08:46:11.570Z,9.23
2018-09-27T08:48:40.143Z,4.37
2018-09-27T08:51:08.847Z,4.67
2018-09-27T08:53:37.469Z,6.47
2018-09-27T08:56:07.204Z,8.90
2018-09-27T08:58:35.832Z,3.87
2018-09-27T09:01:04.537Z,4.87
2018-09-27T09:03:33.606Z,4.40
2018-09-27T09:06:02.205Z,3.83
2018-09-27T09:08:30.819Z,5.00
2018-09-27T09:10:59.459Z,14.67
2018-09-27T09:13:27.980Z,4.47
2018-09-27T09:15:56.696Z,4.57
2018-09-27T09:18:25.273Z,6.00
2018-09-27T09:20:53.850Z,4.77
2018-09-27T09:23:22.580Z,5.73
2018-09-27T09:25:52.272Z,5.87
2018-09-27T09:28:20.876Z,6.70
2018-09-27T09:30:49.657Z,5.37
2018-09-27T09:33:24.881Z,5.13
2018-09-27T09:35:53.494Z,5.37
2018-09-27T09:38:21.988Z,4.90
2018-09-27T09:40:50.764Z,7.80
2018-09-27T09:43:19.347Z,4.47
2018-09-27T09:45:47.901Z,8.67
2018-09-27T09:48:17.634Z,5.27
2018-09-27T09:50:46.234Z,4.50
2018-09-27T09:53:15.984Z,3.67
2018-09-27T09:55:44.555Z,5.60
2018-09-27T09:58:13.278Z,4.90
2018-09-27T10:00:41.884Z,4.13
2018-09-27T10:03:10.453Z,4.70
2018-09-27T10:05:39.211Z,6.57
2018-09-27T10:08:07.927Z,4.97
2018-09-27T10:10:36.565Z,6.10
2018-09-27T10:13:05.835Z,5.57
2018-09-27T10:15:34.484Z,5.70
2018-09-27T10:18:03.263Z,5.77
2018-09-27T10:20:31.836Z,4.93
2018-09-27T10:23:01.376Z,4.40
2018-09-27T10:25:30.016Z,5.90
2018-09-27T10:27:58.740Z,4.83
2018-09-27T10:30:28.415Z,5.47
2018-09-27T10:32:57.218Z,4.37
2018-09-27T10:35:25.962Z,4.33
2018-09-27T10:37:54.515Z,2.60
2018-09-27T10:40:24.119Z,5.07
2018-09-27T10:42:52.865Z,5.23
2018-09-27T10:45:21.747Z,5.37
2018-09-27T10:47:51.384Z,2.97
2018-09-27T10:50:20.306Z,3.77
2018-09-27T10:52:48.888Z,2.97
2018-09-27T10:55:17.544Z,4.40
2018-09-27T10:57:46.181Z,2.30
2018-09-27T11:00:21.864Z,6.30
2018-09-27T11:02:50.960Z,3.60
2018-09-27T11:09:32.628Z,3.03
2018-09-27T11:12:01.309Z,3.30
2018-09-27T11:14:30.208Z,2.57
2018-09-27T11:16:59.544Z,4.27
2018-09-27T11:19:28.058Z,6.47
2018-09-27T11:21:56.745Z,3.23
2018-09-27T11:24:25.303Z,6.10
2018-09-27T11:26:54.024Z,5.60
2018-09-27T11:29:28.068Z,6.10
2018-09-27T11:32:02.043Z,3.57
2018-09-27T11:34:30.651Z,5.77
2018-09-27T11:36:59.201Z,2.00
2018-09-27T11:39:27.807Z,3.33
2018-09-27T11:41:56.584Z,6.17
2018-09-27T11:44:25.432Z,3.80
2018-09-27T11:46:54.017Z,3.23
2018-09-27T11:49:24.213Z,5.20
2018-09-27T11:51:52.801Z,3.07
2018-09-27T11:54:21.456Z,3.83
2018-09-27T11:56:50.210Z,3.63
2018-09-27T11:59:18.801Z,2.60
2018-09-27T12:01:47.444Z,2.93
2018-09-27T12:04:16.187Z,5.40
2018-09-27T12:06:44.901Z,3.83
2018-09-27T12:09:13.914Z,5.23
2018-09-27T12:11:42.620Z,3.83
2018-09-27T12:14:11.721Z,3.40
2018-09-27T12:16:40.324Z,5.23
2018-09-27T12:19:09.064Z,3.40
2018-09-27T12:21:37.648Z,2.83
2018-09-27T12:24:06.195Z,3.27
2018-09-27T12:26:35.339Z,3.03
2018-09-27T12:29:03.876Z,3.13
2018-09-27T12:31:32.812Z,3.27
2018-09-27T12:34:01.657Z,5.00
2018-09-27T12:36:30.248Z,15.07
2018-09-27T12:38:58.801Z,4.13
2018-09-27T12:41:27.455Z,6.73
2018-09-27T12:43:56.240Z,2.50
2018-09-27T12:46:25.364Z,3.53
2018-09-27T12:48:54.159Z,3.67
2018-09-27T12:51:22.817Z,3.60
2018-09-27T12:53:51.641Z,2.47
2018-09-27T12:56:20.438Z,5.23
2018-09-27T12:58:49.017Z,3.50
2018-09-27T13:01:17.497Z,5.70
2018-09-27T13:03:46.178Z,6.30
2018-09-27T13:06:14.747Z,4.43
2018-09-27T13:08:43.337Z,2.70
2018-09-27T13:11:12.168Z,5.55
2018-09-27T13:13:40.698Z,5.10
2018-09-27T13:16:09.524Z,1.80
2018-09-27T13:18:38.240Z,3.97
2018-09-27T13:21:06.793Z,4.50
2018-09-27T13:23:35.346Z,5.40
2018-09-27T13:26:04.212Z,2.40
2018-09-27T13:28:32.717Z,7.73
2018-09-27T13:31:01.430Z,5.33
2018-09-27T13:33:30.703Z,1.77
2018-09-27T13:35:59.223Z,3.60
2018-09-27T13:38:28.970Z,4.73
2018-09-27T13:40:58.280Z,2.63
2018-09-27T13:43:27.648Z,2.50
2018-09-27T13:45:58.327Z,2.97
2018-09-27T13:48:28.074Z,2.37
2018-09-27T13:50:57.752Z,3.33
2018-09-27T13:53:27.234Z,2.33
2018-09-27T13:55:56.929Z,3.57
2018-09-27T13:58:26.277Z,3.13
2018-09-27T14:00:55.668Z,2.70
2018-09-27T14:03:24.614Z,2.70
2018-09-27T14:05:53.464Z,5.60
2018-09-27T14:08:22.139Z,3.47
2018-09-27T14:10:51.095Z,4.93
2018-09-27T14:13:19.778Z,1.63
2018-09-27T14:15:49.159Z,4.83
2018-09-27T14:18:17.793Z,3.73
2018-09-27T14:20:46.594Z,4.00
2018-09-27T14:23:16.031Z,2.83
2018-09-27T14:25:45.023Z,3.17
2018-09-27T14:28:14.389Z,3.40
2018-09-27T14:30:43.009Z,2.95
2018-09-27T14:33:11.644Z,2.00
2018-09-27T14:35:40.225Z,3.50
2018-09-27T14:38:08.685Z,2.40
2018-09-27T14:40:37.482Z,4.50
2018-09-27T14:43:06.429Z,3.40
2018-09-27T14:45:35.025Z,3.37
2018-09-27T14:48:03.878Z,4.43
2018-09-27T14:50:32.414Z,4.10
2018-09-27T14:53:01.096Z,7.13
2018-09-27T14:55:29.861Z,2.53
2018-09-27T14:57:58.628Z,4.60
2018-09-27T15:00:27.101Z,5.00
2018-09-27T15:02:55.711Z,2.27
2018-09-27T15:05:24.976Z,3.13
2018-09-27T15:07:53.579Z,2.37
2018-09-27T15:10:22.333Z,4.77
2018-09-27T15:12:50.977Z,4.03
2018-09-27T15:15:20.092Z,2.53
2018-09-27T15:17:48.924Z,5.87
2018-09-27T15:20:17.500Z,5.03
2018-09-27T15:22:46.188Z,4.80
2018-09-27T15:25:14.726Z,4.70
2018-09-27T15:27:43.283Z,3.60
2018-09-27T15:30:11.958Z,4.93
2018-09-27T15:32:40.731Z,2.73
2018-09-27T15:35:09.284Z,4.97
2018-09-27T15:37:37.920Z,3.53
2018-09-27T15:40:06.626Z,2.67
2018-09-27T15:42:36.348Z,2.77
2018-09-27T15:45:05.983Z,3.50
2018-09-27T15:47:34.789Z,4.97
2018-09-27T15:50:03.478Z,4.93
2018-09-27T15:52:32.025Z,2.90
2018-09-27T15:55:01.758Z,3.57
2018-09-27T15:57:30.549Z,2.73
2018-09-27T15:59:59.377Z,3.00
2018-09-27T16:02:28.065Z,2.97
2018-09-27T16:04:56.704Z,3.20
2018-09-27T16:07:26.490Z,3.10
2018-09-27T16:09:55.268Z,3.97
2018-09-27T16:12:24.008Z,4.27
2018-09-27T16:14:52.801Z,3.80
2018-09-27T16:17:22.460Z,8.70
2018-09-27T16:19:51.200Z,6.97
2018-09-27T16:22:19.890Z,3.90
2018-09-27T16:24:48.853Z,5.60
2018-09-27T16:27:18.713Z,3.27
2018-09-27T16:29:47.397Z,7.97
2018-09-27T16:32:16.152Z,5.87
2018-09-27T16:34:44.656Z,5.47
2018-09-27T16:37:13.253Z,7.97
2018-09-27T16:39:42.136Z,5.57
2018-09-27T16:42:11.267Z,6.57
2018-09-27T16:44:40.042Z,7.90
2018-09-27T16:47:08.711Z,9.23
2018-09-27T16:49:37.258Z,9.80
2018-09-27T16:52:05.840Z,4.10
2018-09-27T16:54:34.669Z,4.00
2018-09-27T16:57:04.948Z,8.23
2018-09-27T16:59:33.601Z,24.00
2018-09-27T17:02:02.413Z,24.37
2018-09-27T17:04:30.996Z,27.63
2018-09-27T17:06:59.608Z,25.47
2018-09-27T17:09:28.486Z,37.07
2018-09-27T17:11:57.063Z,21.07
2018-09-27T17:14:26.685Z,27.90
2018-09-27T17:16:55.380Z,18.80
2018-09-27T17:19:23.949Z,35.80
2018-09-27T17:21:52.444Z,33.73
2018-09-27T17:24:21.208Z,31.20
2018-09-27T17:26:50.692Z,21.37
2018-09-27T17:29:19.340Z,34.90
2018-09-27T17:31:48.073Z,25.00
2018-09-27T17:34:16.607Z,20.67
2018-09-27T17:36:45.320Z,21.97
2018-09-27T17:39:14.179Z,19.63
2018-09-27T17:41:42.875Z,19.67
2018-09-27T17:44:11.853Z,25.57
2018-09-27T17:46:41.409Z,28.43
2018-09-27T17:49:11.014Z,35.87
2018-09-27T17:51:40.024Z,38.47
2018-09-27T17:54:08.864Z,26.17
2018-09-27T17:56:37.697Z,24.37
2018-09-27T17:59:07.074Z,22.90
2018-09-27T18:01:35.747Z,20.63
2018-09-27T18:04:04.364Z,18.60
2018-09-27T18:06:32.972Z,19.13
2018-09-27T18:09:01.726Z,18.23
2018-09-27T18:11:30.450Z,19.00
2018-09-27T18:13:58.962Z,18.73
2018-09-27T18:16:27.631Z,21.57
2018-09-27T18:18:56.488Z,19.43
2018-09-27T18:21:25.049Z,19.62
2018-09-27T18:23:54.807Z,20.37
2018-09-27T18:26:23.498Z,24.83
2018-09-27T18:28:51.963Z,27.20
2018-09-27T18:31:21.077Z,35.23
2018-09-27T18:33:49.617Z,34.67
2018-09-27T18:36:19.384Z,34.47
2018-09-27T18:38:48.168Z,32.03
2018-09-27T18:41:16.686Z,34.17
2018-09-27T18:43:45.285Z,30.80
2018-09-27T18:46:14.029Z,32.83
2018-09-27T18:48:42.531Z,31.77
2018-09-27T18:51:11.144Z,29.47
2018-09-27T18:53:39.792Z,27.23
2018-09-27T18:56:08.438Z,28.93
2018-09-27T18:58:38.071Z,32.90
2018-09-27T19:01:06.960Z,33.83
2018-09-27T19:03:35.576Z,26.40
2018-09-27T19:06:04.164Z,23.90
2018-09-27T19:08:32.801Z,28.30
2018-09-27T19:11:01.519Z,33.63
2018-09-27T19:13:30.940Z,31.17
2018-09-27T19:15:59.746Z,35.57
2018-09-27T19:18:28.352Z,36.73
2018-09-27T19:20:56.968Z,34.40
2018-09-27T19:23:25.921Z,33.63
2018-09-27T19:25:55.328Z,27.23
2018-09-27T19:28:23.909Z,27.83
2018-09-27T19:30:52.488Z,24.07
2018-09-27T19:33:21.291Z,26.27
2018-09-27T19:35:49.821Z,25.53
2018-09-27T19:38:18.599Z,27.03
2018-09-27T19:40:47.173Z,18.80
2018-09-27T19:43:15.686Z,21.40
2018-09-27T19:45:44.347Z,21.37
2018-09-27T19:48:13.868Z,22.07
2018-09-27T19:50:42.756Z,21.07
2018-09-27T19:53:11.432Z,22.30
2018-09-27T19:55:40.013Z,19.40
2018-09-27T19:58:08.812Z,21.27
2018-09-27T20:00:37.704Z,20.33
2018-09-27T20:03:07.141Z,23.07
2018-09-27T20:05:35.898Z,22.23
2018-09-27T20:08:04.697Z,25.30
2018-09-27T20:10:33.596Z,25.97
2018-09-27T20:13:02.440Z,19.63
2018-09-27T20:15:31.384Z,19.37
2018-09-27T20:18:00.050Z,20.80
2018-09-27T20:20:28.556Z,17.60
2018-09-27T20:22:57.188Z,15.77
2018-09-27T20:25:25.740Z,15.53
2018-09-27T20:27:54.390Z,14.77
2018-09-27T20:30:23.124Z,18.00
2018-09-27T20:32:51.745Z,20.97
2018-09-27T20:35:21.204Z,16.90
2018-09-27T20:37:49.911Z,17.70
2018-09-27T20:40:18.701Z,18.13
2018-09-27T20:42:47.480Z,23.70
2018-09-27T20:45:16.148Z,34.80
2018-09-27T20:47:44.765Z,45.53
2018-09-27T20:50:14.397Z,60.53
2018-09-27T20:52:43.076Z,56.47
2018-09-27T20:55:11.928Z,49.43
2018-09-27T20:57:40.501Z,52.43
2018-09-27T21:00:10.164Z,62.27
2018-09-27T21:02:38.642Z,45.73
2018-09-27T21:05:07.581Z,34.90
2018-09-27T21:07:36.378Z,33.20
2018-09-27T21:10:05.169Z,43.37
2018-09-27T21:12:33.940Z,30.70
2018-09-27T21:15:02.812Z,31.40
2018-09-27T21:17:34.748Z,34.87
2018-09-27T21:20:03.456Z,31.23
2018-09-27T21:22:32.118Z,31.90
2018-09-27T21:25:00.728Z,28.13
2018-09-27T21:27:29.550Z,22.97
2018-09-27T21:29:57.998Z,28.70
2018-09-27T21:32:26.495Z,24.50
2018-09-27T21:34:55.221Z,30.03
2018-09-27T21:37:23.667Z,29.77
2018-09-27T21:39:52.161Z,36.57
2018-09-27T21:42:20.764Z,33.47
2018-09-27T21:44:49.241Z,25.87
2018-09-27T21:47:17.772Z,24.90
2018-09-27T21:49:46.483Z,20.67
2018-09-27T21:52:15.096Z,21.10
2018-09-27T21:54:43.739Z,19.03
2018-09-27T21:57:12.635Z,22.40
2018-09-27T21:59:41.226Z,18.07
2018-09-27T22:02:09.743Z,17.60
2018-09-27T22:04:38.355Z,18.80
2018-09-27T22:07:07.048Z,15.53
2018-09-27T22:09:35.526Z,17.57
2018-09-27T22:12:04.229Z,18.63
2018-09-27T22:14:33.008Z,18.93
2018-09-27T22:17:01.550Z,19.80
2018-09-27T22:19:30.345Z,17.43
2018-09-27T22:21:58.873Z,18.33
2018-09-27T22:24:27.565Z,16.30
2018-09-27T22:26:56.295Z,13.37
2018-09-27T22:29:24.896Z,17.17
2018-09-27T22:31:53.425Z,11.77
2018-09-27T22:34:22.145Z,11.73
2018-09-27T22:36:50.756Z,10.53
2018-09-27T22:39:19.364Z,12.27
2018-09-27T22:41:48.029Z,11.77
2018-09-27T22:44:16.664Z,10.17
2018-09-27T22:46:45.216Z,11.43
2018-09-27T22:49:14.281Z,11.27
2018-09-27T22:51:42.787Z,13.70
2018-09-27T22:54:11.412Z,14.07
2018-09-27T22:56:40.029Z,10.07
2018-09-27T22:59:08.563Z,9.77
2018-09-27T23:01:37.168Z,13.23
2018-09-27T23:04:05.809Z,10.57
2018-09-27T23:06:34.327Z,10.50
2018-09-27T23:09:02.896Z,10.93
2018-09-27T23:11:32.706Z,11.87
2018-09-27T23:14:02.456Z,10.60
2018-09-27T23:16:31.308Z,13.00
2018-09-27T23:18:59.999Z,9.67
2018-09-27T23:21:28.863Z,11.37
2018-09-27T23:23:57.448Z,9.43
2018-09-27T23:26:26.472Z,9.60
2018-09-27T23:28:55.004Z,10.87
2018-09-27T23:31:23.595Z,9.97
2018-09-27T23:33:52.247Z,9.93
2018-09-27T23:36:21.236Z,10.90
2018-09-27T23:38:50.796Z,11.33
2018-09-27T23:41:19.571Z,9.77
2018-09-27T23:43:48.188Z,9.80
2018-09-27T23:46:16.736Z,10.80
2018-09-27T23:48:46.336Z,9.00
2018-09-27T23:51:14.892Z,10.80
2018-09-27T23:53:44.311Z,10.43
2018-09-27T23:56:13.014Z,10.50
2018-09-27T23:58:42.644Z,12.73
